Nearby METAR Reports

 

KSEE - San Diego/Santee, California, USA
Distance from station: E 4mi, 6km
Updated: 04/19/2018 9:47am
Overcast
Overcast
 Wind from W
Wind: W 12 mph , 19 km/h
Temperature: 55°F , 13°C
Dew Point: 43°F , 6°C
Humidity: 63%
Barometer: 30.06 inHg , 1017.9 hPa
Clouds: Overcast
Visibility: 9 miles , 14 km
Cloud details: Mostly cloudy 3800 ft
Overcast 4400 ft
2018/04/19 16:47 KSEE 191647Z 26010KT 9SM BKN038 OVC044 13/06 A3006
KMYF - San Diego/Mntgmy, California, USA
Distance from station: W 6mi, 10km
Updated: 04/19/2018 9:53am
Rain, Overcast
Rain, Overcast
 Wind from W
Wind: W 12 mph , 19 km/h
Temperature: 55°F , 13°C
Dew Point: 46°F , 8°C
Humidity: 72%
Barometer: 30.07 inHg , 1018.3 hPa
Summary: Rain
Clouds: Overcast
Visibility: 3 miles , 5 km
Cloud details: Few Clouds 2500 ft
Mostly cloudy 3400 ft
Overcast 5000 ft
2018/04/19 16:53 KMYF 191653Z 28010KT 3SM RA FEW025 BKN034 OVC050 13/08 A3007 RMK AO2 RAB10 SLP181 P0001 T01280083
 
KNKX - Miramar Nas/San, California, USA
Distance from station: WNW 7mi, 11km
Updated: 04/19/2018 9:55am
Rain, Overcast
Rain, Overcast
 Wind from WNW
Wind: WNW 9 mph , 15 km/h
Temperature: 57°F , 14°C
Dew Point: 48°F , 9°C
Humidity: 72%
Barometer: 30.06 inHg , 1017.9 hPa
Summary: Rain
Clouds: Overcast
Visibility: 10 miles , 16 km
Cloud details: Mostly cloudy 3600 ft
Overcast 4800 ft
2018/04/19 16:55 KNKX 191655Z COR 29008KT 10SM RA BKN036 OVC048 14/09 A3006 RMK AO2 RAB09 SLP177 P0001 T01390089 $
KSAN - San Diego, California, USA
Distance from station: WSW 11mi, 17km
Updated: 04/19/2018 9:51am
Light rain, Overcast
Light rain, Overcast
 Wind from WSW
Wind: WSW 12 mph , 19 km/h
Temperature: 57°F , 14°C
Dew Point: 48°F , 9°C
Humidity: 72%
Barometer: 30.09 inHg , 1019 hPa
Summary: Light rain
Clouds: Overcast
Visibility: 10 miles , 16 km
Cloud details: Partly cloudy 2900 ft
Mostly cloudy 3500 ft
Overcast 4700 ft
2018/04/19 16:51 KSAN 191651Z 24010KT 10SM -RA SCT029 BKN035 OVC047 14/09 A3009 RMK AO2 RAB11 SLP189 P0000 T01390089
 
KNZY - North Island Nas, California, USA
Distance from station: SW 13mi, 22km
Updated: 04/19/2018 9:52am
Light rain, Mist, Overcast
Light rain, Mist, Overcast
 Wind from W
Wind: W 9 mph , 15 km/h
Temperature: 55°F , 13°C
Dew Point: 50°F , 10°C
Humidity: 82%
Barometer: 30.07 inHg , 1018.3 hPa
Summary: Light rain, Mist
Clouds: Overcast
Visibility: 5 miles , 8 km
Cloud details: Mostly cloudy 2600 ft
Mostly cloudy 3500 ft
Overcast 6000 ft
2018/04/19 16:52 KNZY 191652Z 26008KT 5SM -RA BR BKN026 BKN035 OVC060 13/10 A3007 RMK AO2 RAB10 SLP182 P0000 T01330100 $
KRNM - Ramona, California, USA
Distance from station: NNE 16mi, 26km
Updated: 04/19/2018 9:53am
Overcast
Overcast
 Wind from W
Wind: W 15 mph , 24 km/h
Temperature: 54°F , 12°C
Dew Point: 39°F , 4°C
Humidity: 58%
Barometer: 30.04 inHg , 1017.3 hPa
Clouds: Overcast
Visibility: 10 miles , 16 km
Cloud details: Overcast 3200 ft
2018/04/19 16:53 KRNM 191653Z 28013KT 10SM OVC032 12/04 A3004 RMK AO2 SLP169 T01170039
 
KSDM - San Diego/Brown, California, USA
Distance from station: S 16mi, 26km
Updated: 04/19/2018 9:53am
Overcast
Overcast
 Wind from SW
Wind: SW 9 mph , 15 km/h
Temperature: 59°F , 15°C
Dew Point: 43°F , 6°C
Humidity: 55%
Barometer: 30.06 inHg , 1017.9 hPa
Clouds: Overcast
Visibility: 10 miles , 16 km
Cloud details: Few Clouds 3500 ft
Mostly cloudy 5000 ft
Overcast 7000 ft
2018/04/19 16:53 KSDM 191653Z 23008KT 10SM FEW035 BKN050 OVC070 15/06 A3006 RMK AO2 SLP177 T01500061
KNRS - Imperial Beach, California, USA
Distance from station: SSW 18mi, 29km
Updated: 04/19/2018 9:56am
Light rain, Overcast
Light rain, Overcast
 Wind from SSW
Wind: SSW 9 mph , 15 km/h
Temperature: 59°F , 15°C
Dew Point: 45°F , 7°C
Humidity: 59%
Barometer: 30.08 inHg , 1018.6 hPa
Summary: Light rain
Clouds: Overcast
Visibility: 6 miles , 10 km
Cloud details: Partly cloudy 3400 ft
Mostly cloudy 7000 ft
Overcast 25000 ft
2018/04/19 16:56 KNRS 191656Z 21008KT 6SM -RA SCT034 BKN070 OVC250 15/07 A3008 RMK AO2 RAB47 SLP186 P0000 T01440067 $
 
MMTJ - Tijuana Intl Arp, Mexico
Distance from station: S 20mi, 32km
Updated: 04/19/2018 9:47am
Overcast
Overcast
 Wind from W
Wind: W 7 mph , 11 km/h
Temperature: 57°F , 14°C
Dew Point: 43°F , 6°C
Humidity: 59%
Barometer: 30.09 inHg , 1019 hPa
Clouds: Overcast
Visibility: 10 miles , 16 km
Cloud details: Mostly cloudy 3000 ft
Overcast 4200 ft
2018/04/19 16:47 MMTJ 191647Z 26006KT 10SM BKN030 OVC042 14/06 A3009 RMK 8/5// HZY BINOVC
KCRQ - Carlsbad, California, USA
Distance from station: NW 26mi, 43km
Updated: 04/19/2018 9:53am
Rain, Overcast
Rain, Overcast
 Wind from WSW
Wind: WSW 7 mph , 11 km/h
Temperature: 54°F , 12°C
Dew Point: 48°F , 9°C
Humidity: 82%
Barometer: 30.06 inHg , 1017.9 hPa
Summary: Rain
Clouds: Overcast
Visibility: 5 miles , 8 km
Cloud details: Few Clouds 2600 ft
Mostly cloudy 4200 ft
Overcast 5000 ft
2018/04/19 16:53 KCRQ 191653Z 25006KT 5SM RA FEW026 BKN042 OVC050 12/09 A3006 RMK AO2 SLP179 P0002 T01170089
 
KOKB - Oceanside, California, USA
Distance from station: NW 33mi, 54km
Updated: 04/19/2018 9:52am
Light rain, Mist, Overcast
Light rain, Mist, Overcast
 Wind from calm
Wind: Calm
Temperature: 52°F , 11°C
Dew Point: 48°F , 9°C
Humidity: 88%
Barometer: 30.07 inHg , 1018.3 hPa
Summary: Light rain, Mist
Clouds: Overcast
Visibility: 3 miles , 5 km
Cloud details: Mostly cloudy 2000 ft
Mostly cloudy 2600 ft
Overcast 4400 ft
2018/04/19 16:52 KOKB 191652Z AUTO 00000KT 3SM -RA BR BKN020 BKN026 OVC044 11/09 A3007 RMK AO2 SLP181 P0005 T01110089
KCZZ - Campo, California, USA
Distance from station: ESE 35mi, 56km
Updated: 04/19/2018 9:52am

 Wind from SW
Wind: SW 17 mph , 28 km/h, Gust: 31 mph , 50 km/h
Temperature: 48°F , 9°C
Wind Chill: 42°F , 6°C
Dew Point: 36°F , 2°C
Humidity: 62%
Barometer: 29.97 inHg , 1014.9 hPa
2018/04/19 16:52 KCZZ 191652Z AUTO 23015G27KT 09/02 A2997 RMK AO1 PK WND 21027/1645 SLP138 T00940022
 
KNFG - Camp Pendleton, California, USA
Distance from station: NNW 37mi, 59km
Updated: 04/19/2018 9:55am
Light rain, Mist, Overcast
Light rain, Mist, Overcast
 Wind from SSW
Wind: SSW 3 mph , 6 km/h
Temperature: 52°F , 11°C
Dew Point: 48°F , 9°C
Humidity: 88%
Barometer: 30.07 inHg , 1018.3 hPa
Summary: Light rain, Mist
Clouds: Overcast
Visibility: 3 miles , 5 km
Cloud details: Partly cloudy 3500 ft
Mostly cloudy 4500 ft
Overcast 6000 ft
2018/04/19 16:55 KNFG 191655Z 20003KT 3SM -RA BR SCT035 BKN045 OVC060 11/09 A3007 RMK AO2 SLP182 P0006 T01060089
KRIV - Riverside/March, California, USA
Distance from station: N 74mi, 119km
Updated: 04/19/2018 9:58am
Light rain, Overcast
Light rain, Overcast
 Wind from SW
Wind: SW 6 mph , 9 km/h
Temperature: 48°F , 9°C
Wind Chill: 45°F , 7°C
Dew Point: 41°F , 5°C
Humidity: 76%
Barometer: 30.03 inHg , 1016.9 hPa
Summary: Light rain
Clouds: Overcast
Visibility: 10 miles , 16 km
Cloud details: Mostly cloudy 2500 ft
Overcast 3200 ft
2018/04/19 16:58 KRIV 191658Z AUTO 22005KT 10SM -RA BKN025 OVC032 09/05 A3003 RMK AO2 DZB28E36RAB36 SLP168 P0000 T00900054
 
KTRM - Thermal/Palm Spg, California, USA
Distance from station: NE 75mi, 121km
Updated: 04/19/2018 9:52am
Clear
Clear
 Wind from varies
Wind: varies 7 mph , 11 km/h
Temperature: 70°F , 21°C
Dew Point: 30°F , -1°C
Humidity: 23%
Barometer: 29.91 inHg , 1012.9 hPa
Clouds: Clear
Visibility: 10 miles , 16 km
2018/04/19 16:52 KTRM 191652Z AUTO VRB06KT 10SM CLR 21/M01 A2991 RMK AO2 SLP131 T02061011
KPSP - Palm Springs, California, USA
Distance from station: NNE 76mi, 122km
Updated: 04/19/2018 9:53am
Clear
Clear
 Wind from varies
Wind: varies 7 mph , 11 km/h
Temperature: 64°F , 18°C
Dew Point: 27°F , -3°C
Humidity: 24%
Barometer: 29.92 inHg , 1013.2 hPa
Clouds: Clear
Visibility: 10 miles , 16 km
2018/04/19 16:53 KPSP 191653Z VRB06KT 10SM CLR 18/M03 A2992 RMK AO2 SLP131 T01831033
 
KSNA - Costa Mesa, California, USA
Distance from station: NW 76mi, 123km
Updated: 04/19/2018 9:53am
Mostly cloudy
Mostly cloudy
 Wind from varies
Wind: varies 6 mph , 9 km/h
Temperature: 55°F , 13°C
Dew Point: 43°F , 6°C
Humidity: 63%
Barometer: 30.05 inHg , 1017.6 hPa
Clouds: Mostly cloudy
Visibility: 10 miles , 16 km
Cloud details: Few Clouds 2800 ft
Partly cloudy 4100 ft
Mostly cloudy 8500 ft
2018/04/19 16:53 KSNA 191653Z VRB05KT 10SM FEW028 SCT041 BKN085 13/06 A3005 RMK AO2 RAE08 SLP175 P0000 T01280061
KNJK - El Centro Naf, California, USA
Distance from station: E 79mi, 127km
Updated: 04/19/2018 9:56am
Few Clouds
Few Clouds
 Wind from WSW
Wind: WSW 23 mph , 37 km/h, Gust: 31 mph , 50 km/h
Temperature: 66°F , 19°C
Dew Point: 32°F , 0°C
Humidity: 28%
Barometer: 29.98 inHg , 1015.2 hPa
Clouds: Few Clouds
Visibility: 10 miles , 16 km
Cloud details: Few Clouds 8000 ft
Few Clouds 25000 ft
2018/04/19 16:56 KNJK 191656Z 24020G27KT 10SM FEW080 FEW250 19/00 A2998 RMK AO2 PK WND 25035/1600 SLP168 T01890000
 
KAJO - Corona Muni, California, USA
Distance from station: NNW 82mi, 132km
Updated: 04/19/2018 8:56am
Light rain, Overcast
Light rain, Overcast
 Wind from WNW
Wind: WNW 7 mph , 11 km/h
Temperature: 54°F , 12°C
Dew Point: 34°F , 1°C
Humidity: 47%
Barometer: 30.06 inHg , 1017.9 hPa
Summary: Light rain
Clouds: Overcast
Visibility: 10 miles , 16 km
Cloud details: Mostly cloudy 4500 ft
Overcast 6000 ft
2018/04/19 15:56 KAJO 191556Z AUTO 29006KT 10SM -RA BKN045 OVC060 12/01 A3006 RMK AO2 RAB37 SLP191 P0000 T01170011 $